Time;durP1;ratioP1;P1;durP2;ratioP2;P2;SDS_P1;SDS_P2;PMS_P1;PMS_P2;Temp;Humidity;BMP_temperature;BMP_pressure;BME280_temperature;BME280_humidity;BME280_pressure;Samples;Min_cycle;Max_cycle;Signal;HPM_P1;HPM_P2
2022/05/31 00:02:16;;;;;;;2.53;1.90;;;9.70;99.90;;;;;;4976672;28;20033;-74
2022/05/31 00:04:42;;;;;;;4.30;1.75;;;9.70;99.90;;;;;;4979686;28;20109;-75
2022/05/31 00:07:07;;;;;;;3.88;1.85;;;9.60;99.90;;;;;;4976342;28;20117;-75
2022/05/31 00:09:34;;;;;;;4.10;1.77;;;9.60;99.90;;;;;;4983051;28;20039;-75
2022/05/31 00:12:00;;;;;;;2.45;1.80;;;9.60;99.90;;;;;;4980508;28;20109;-75
2022/05/31 00:14:27;;;;;;;2.50;2.03;;;9.60;99.90;;;;;;4980859;28;20034;-75
2022/05/31 00:16:52;;;;;;;1.98;1.48;;;9.60;99.90;;;;;;4978963;28;20038;-76
2022/05/31 00:19:19;;;;;;;3.38;1.88;;;9.60;99.90;;;;;;4983687;28;20514;-76
2022/05/31 00:21:53;;;;;;;4.45;2.00;;;9.60;99.90;;;;;;4975959;28;20018;-75
2022/05/31 00:24:20;;;;;;;3.65;2.00;;;9.60;99.90;;;;;;4982546;28;20039;-75
2022/05/31 00:26:48;;;;;;;2.38;1.60;;;9.60;99.90;;;;;;4976987;28;20018;-75
2022/05/31 00:29:14;;;;;;;3.15;1.65;;;9.60;99.90;;;;;;4985279;28;20437;-75
2022/05/31 00:31:44;;;;;;;3.13;2.10;;;9.50;99.90;;;;;;4973896;28;20097;-75
2022/05/31 00:34:10;;;;;;;3.88;1.85;;;9.50;99.90;;;;;;4982304;28;20034;-76
2022/05/31 00:36:39;;;;;;;3.05;1.80;;;9.50;99.90;;;;;;4980298;28;20026;-76
2022/05/31 00:39:05;;;;;;;3.28;2.10;;;9.40;99.90;;;;;;4966945;28;20406;-76
2022/05/31 00:41:33;;;;;;;3.38;1.90;;;9.30;99.90;;;;;;4976141;28;20113;-75
2022/05/31 00:44:15;;;;;;;3.95;2.15;;;9.30;99.90;;;;;;4976664;28;20032;-75
2022/05/31 00:46:49;;;;;;;3.45;2.20;;;9.30;99.90;;;;;;4980811;28;20022;-75
2022/05/31 00:49:36;;;;;;;4.97;2.00;;;9.30;99.90;;;;;;4979300;28;20114;-75
2022/05/31 00:52:22;;;;;;;9.13;2.05;;;9.30;99.90;;;;;;4980305;28;20192;-75
2022/05/31 00:55:11;;;;;;;3.90;1.98;;;9.30;99.90;;;;;;4981888;28;20038;-75
2022/05/31 00:57:40;;;;;;;3.53;2.08;;;9.30;99.90;;;;;;4985565;28;20058;-76
2022/05/31 01:00:10;;;;;;;3.58;2.08;;;9.30;99.90;;;;;;4983642;28;20522;-76
2022/05/31 01:02:37;;;;;;;4.38;1.88;;;9.30;99.90;;;;;;4985883;28;20118;-75
2022/05/31 01:05:05;;;;;;;5.45;2.10;;;9.20;99.90;;;;;;4985363;28;20033;-75
2022/05/31 01:07:32;;;;;;;3.28;2.20;;;9.20;99.90;;;;;;4984812;28;20038;-76
2022/05/31 01:09:58;;;;;;;4.35;1.85;;;9.20;99.90;;;;;;4986329;28;20030;-76
2022/05/31 01:12:25;;;;;;;2.63;1.90;;;9.20;99.90;;;;;;4984451;28;20069;-76
2022/05/31 01:14:52;;;;;;;3.67;2.20;;;9.10;99.90;;;;;;4989245;28;20494;-76
2022/05/31 01:17:23;;;;;;;3.70;1.95;;;9.10;99.90;;;;;;4987234;28;20088;-76
2022/05/31 01:19:56;;;;;;;4.22;2.42;;;9.10;99.90;;;;;;4984139;28;20027;-76
2022/05/31 01:22:37;;;;;;;3.55;2.10;;;9.10;99.90;;;;;;4982798;28;20026;-76
2022/05/31 01:25:23;;;;;;;2.85;2.15;;;9.10;99.90;;;;;;4998760;28;20035;-75
2022/05/31 01:28:12;;;;;;;5.13;2.47;;;9.00;99.90;;;;;;4983338;28;20081;-76
2022/05/31 01:30:45;;;;;;;2.72;1.98;;;9.10;99.90;;;;;;4986247;28;20106;-76
2022/05/31 01:33:43;;;;;;;4.20;2.60;;;9.00;99.90;;;;;;4981786;28;20505;-77
2022/05/31 01:36:20;;;;;;;3.97;2.40;;;9.00;99.90;;;;;;4986878;28;20089;-76
2022/05/31 01:38:58;;;;;;;4.00;2.55;;;9.00;99.90;;;;;;4984753;28;20028;-76
2022/05/31 01:41:39;;;;;;;3.78;2.35;;;9.00;99.90;;;;;;4982492;28;20027;-75
2022/05/31 01:44:10;;;;;;;5.28;2.95;;;9.00;99.90;;;;;;4989947;28;20037;-75
2022/05/31 01:46:36;;;;;;;3.70;2.53;;;9.00;99.90;;;;;;4987178;28;20030;-75
2022/05/31 01:49:08;;;;;;;3.85;2.65;;;9.00;99.90;;;;;;4984913;28;20038;-76
2022/05/31 01:51:41;;;;;;;3.85;2.60;;;9.00;99.90;;;;;;4965808;28;20073;-75
2022/05/31 01:54:10;;;;;;;3.78;2.55;;;8.90;99.90;;;;;;4985356;28;20446;-75
2022/05/31 01:56:37;;;;;;;5.47;2.75;;;8.90;99.90;;;;;;4984099;28;20027;-76
2022/05/31 01:59:04;;;;;;;3.72;2.72;;;8.90;99.90;;;;;;4981092;28;20026;-76
2022/05/31 02:01:35;;;;;;;4.63;3.05;;;8.90;99.90;;;;;;4985844;28;20022;-76
2022/05/31 02:04:01;;;;;;;3.60;2.65;;;8.90;99.90;;;;;;4983345;28;20049;-76
2022/05/31 02:06:32;;;;;;;5.05;3.10;;;8.80;99.90;;;;;;4981429;28;20053;-75
2022/05/31 02:08:59;;;;;;;5.30;3.00;;;8.80;99.90;;;;;;4983119;28;20062;-75
2022/05/31 02:11:25;;;;;;;4.47;2.67;;;8.80;99.90;;;;;;4985376;28;20101;-75
2022/05/31 02:13:51;;;;;;;3.95;2.67;;;8.80;99.90;;;;;;4984435;28;20031;-75
2022/05/31 02:16:17;;;;;;;6.15;2.45;;;8.70;99.90;;;;;;4982446;28;20032;-75
2022/05/31 02:21:35;;;;;;;11.75;3.60;;;8.70;99.90;;;;;;4985198;28;20030;-75
2022/05/31 02:24:14;;;;;;;4.45;2.67;;;8.70;99.90;;;;;;4983825;28;20049;-76
2022/05/31 02:26:43;;;;;;;4.63;3.20;;;8.70;99.90;;;;;;4983302;28;20027;-75
2022/05/31 02:29:15;;;;;;;4.88;3.03;;;8.70;99.90;;;;;;4964343;28;20034;-75
2022/05/31 02:31:41;;;;;;;5.15;3.55;;;8.70;99.90;;;;;;4968808;28;20121;-75
2022/05/31 02:34:08;;;;;;;3.78;2.83;;;8.70;99.90;;;;;;4983160;28;20027;-74
2022/05/31 02:36:34;;;;;;;5.35;3.25;;;8.60;99.90;;;;;;4986638;28;20022;-75
2022/05/31 02:39:00;;;;;;;4.60;3.22;;;8.60;99.90;;;;;;4978042;28;20936;-76
2022/05/31 02:41:29;;;;;;;5.70;3.08;;;8.50;99.90;;;;;;4979444;28;20509;-75
2022/05/31 02:43:55;;;;;;;6.00;3.45;;;8.50;99.90;;;;;;4985793;28;20411;-75
2022/05/31 02:46:21;;;;;;;6.15;3.17;;;8.50;99.90;;;;;;4982886;28;20487;-75
2022/05/31 02:48:47;;;;;;;5.13;3.25;;;8.50;99.90;;;;;;4982140;28;20038;-75
2022/05/31 02:51:13;;;;;;;4.05;2.92;;;8.60;99.90;;;;;;4979037;28;20412;-75
2022/05/31 02:53:38;;;;;;;5.07;3.17;;;8.60;99.90;;;;;;4967655;28;20030;-75
2022/05/31 02:56:04;;;;;;;5.07;3.08;;;8.60;99.90;;;;;;4981750;28;20030;-75
2022/05/31 02:58:30;;;;;;;4.20;3.13;;;8.50;99.90;;;;;;4982403;28;20033;-74
2022/05/31 03:00:55;;;;;;;3.50;2.83;;;8.50;99.90;;;;;;4978237;28;20031;-74
2022/05/31 03:03:21;;;;;;;4.20;2.88;;;8.50;99.90;;;;;;4970387;28;20069;-74
2022/05/31 03:05:50;;;;;;;5.57;3.63;;;8.50;99.90;;;;;;4978745;28;20034;-74
2022/05/31 03:08:17;;;;;;;5.47;3.85;;;8.50;99.90;;;;;;4985736;28;20030;-74
2022/05/31 03:10:47;;;;;;;5.03;3.05;;;8.50;99.90;;;;;;4970611;28;20026;-75
2022/05/31 03:13:17;;;;;;;5.32;3.38;;;8.50;99.90;;;;;;4986859;28;20042;-75
2022/05/31 03:15:43;;;;;;;6.28;3.20;;;8.50;99.90;;;;;;4980277;28;20450;-75
2022/05/31 03:18:14;;;;;;;6.40;3.50;;;8.50;99.90;;;;;;4966056;28;20049;-74
2022/05/31 03:20:44;;;;;;;4.13;3.10;;;8.50;99.90;;;;;;4985109;28;20074;-75
2022/05/31 03:23:22;;;;;;;4.70;2.90;;;8.50;99.90;;;;;;4983312;28;20030;-75
2022/05/31 03:25:50;;;;;;;4.25;3.50;;;8.50;99.90;;;;;;4968581;28;20742;-75
2022/05/31 03:28:18;;;;;;;5.07;3.40;;;8.60;99.90;;;;;;4984286;28;20644;-75
2022/05/31 03:30:43;;;;;;;6.15;2.97;;;8.60;99.90;;;;;;4982971;28;20423;-75
2022/05/31 03:33:11;;;;;;;5.80;3.58;;;8.60;99.90;;;;;;4986169;28;20105;-75
2022/05/31 03:35:37;;;;;;;4.47;3.33;;;8.60;99.90;;;;;;4983138;28;20035;-75
2022/05/31 03:38:04;;;;;;;6.43;3.45;;;8.50;99.90;;;;;;4987265;28;20056;-76
2022/05/31 03:43:14;;;;;;;5.15;3.47;;;8.50;99.90;;;;;;4980507;28;20038;-75
2022/05/31 03:45:42;;;;;;;4.88;2.92;;;8.50;99.90;;;;;;4981720;28;20030;-75
2022/05/31 03:48:10;;;;;;;5.97;3.70;;;8.50;99.90;;;;;;4985929;28;20050;-75
2022/05/31 03:50:39;;;;;;;6.10;3.17;;;8.40;99.90;;;;;;4986829;28;20030;-75
2022/05/31 03:53:06;;;;;;;5.43;3.28;;;8.40;99.90;;;;;;4981935;28;20041;-76
2022/05/31 03:55:39;;;;;;;6.50;3.60;;;8.40;99.90;;;;;;4993032;28;20038;-75
2022/05/31 03:58:05;;;;;;;4.63;3.40;;;8.40;99.90;;;;;;4984445;28;20550;-76
2022/05/31 04:00:33;;;;;;;7.18;4.22;;;8.50;99.90;;;;;;4982828;28;20032;-75
2022/05/31 04:02:59;;;;;;;5.93;3.83;;;8.50;99.90;;;;;;4984035;28;20034;-75
2022/05/31 04:05:25;;;;;;;6.68;3.60;;;8.50;99.90;;;;;;4984029;28;20423;-75
2022/05/31 04:07:51;;;;;;;7.05;4.03;;;8.50;99.90;;;;;;4983258;28;20026;-75
2022/05/31 04:10:18;;;;;;;7.38;4.25;;;8.50;99.90;;;;;;4979994;28;20034;-75
2022/05/31 04:12:44;;;;;;;6.00;3.72;;;8.50;99.90;;;;;;4981911;28;20053;-75
2022/05/31 04:15:10;;;;;;;6.43;4.13;;;8.50;99.90;;;;;;4986317;28;20136;-75
2022/05/31 04:17:36;;;;;;;7.80;4.57;;;8.50;99.90;;;;;;4981077;28;20026;-75
2022/05/31 04:20:02;;;;;;;6.57;3.90;;;8.50;99.90;;;;;;4978816;28;20144;-75
2022/05/31 04:22:28;;;;;;;6.97;4.05;;;8.50;99.90;;;;;;4974532;28;20027;-76
2022/05/31 04:24:57;;;;;;;5.47;4.00;;;8.60;99.90;;;;;;4981922;28;20033;-75
2022/05/31 04:27:23;;;;;;;7.40;3.97;;;8.60;99.90;;;;;;4980155;28;20033;-75
2022/05/31 04:29:49;;;;;;;8.63;4.05;;;8.60;99.90;;;;;;4962141;28;20191;-76
2022/05/31 04:32:17;;;;;;;8.55;4.70;;;8.70;99.90;;;;;;4984413;28;20037;-75
2022/05/31 04:34:42;;;;;;;6.68;4.40;;;8.80;99.90;;;;;;4971230;28;20030;-76
2022/05/31 04:37:09;;;;;;;6.47;4.47;;;8.90;99.90;;;;;;4988756;28;20984;-75
2022/05/31 04:39:35;;;;;;;8.18;4.80;;;9.00;99.90;;;;;;4981491;28;20028;-76
2022/05/31 04:42:01;;;;;;;8.23;5.30;;;9.00;99.90;;;;;;4967558;28;20026;-76
2022/05/31 04:44:27;;;;;;;12.52;6.28;;;9.00;99.90;;;;;;4986342;28;20053;-76
2022/05/31 04:46:53;;;;;;;8.35;6.13;;;9.10;99.90;;;;;;4982814;28;20410;-76
2022/05/31 04:49:20;;;;;;;10.43;6.43;;;9.20;99.90;;;;;;4979126;28;20499;-77
2022/05/31 04:51:46;;;;;;;9.10;6.25;;;9.20;99.90;;;;;;4985362;28;20039;-75
2022/05/31 04:54:12;;;;;;;8.43;5.28;;;9.30;99.90;;;;;;4982526;28;20026;-75
2022/05/31 04:56:38;;;;;;;9.30;5.05;;;9.40;99.90;;;;;;4983621;28;20032;-75
2022/05/31 04:59:03;;;;;;;7.50;5.28;;;9.40;99.90;;;;;;4985547;28;20030;-74
2022/05/31 05:01:29;;;;;;;9.90;5.78;;;9.50;99.90;;;;;;4964729;28;20039;-74
2022/05/31 05:03:55;;;;;;;7.63;4.68;;;9.60;99.90;;;;;;4981453;28;20108;-76
2022/05/31 05:06:22;;;;;;;6.78;4.82;;;9.60;99.90;;;;;;4974891;28;20035;-75
2022/05/31 05:08:49;;;;;;;8.32;4.75;;;9.70;99.90;;;;;;4991936;28;20034;-74
2022/05/31 05:11:17;;;;;;;7.35;4.85;;;9.70;99.90;;;;;;4971111;28;20030;-75
2022/05/31 05:13:43;;;;;;;8.98;4.63;;;9.80;99.90;;;;;;4963430;28;20033;-75
2022/05/31 05:16:10;;;;;;;5.43;4.10;;;9.90;99.90;;;;;;4977129;28;20037;-76
2022/05/31 05:18:37;;;;;;;6.40;3.58;;;9.90;99.90;;;;;;4978635;28;20037;-76
2022/05/31 05:21:07;;;;;;;6.57;3.88;;;10.00;99.90;;;;;;4974308;28;20118;-76
2022/05/31 05:23:33;;;;;;;6.05;4.43;;;10.10;99.90;;;;;;4979026;28;20387;-75
2022/05/31 05:25:59;;;;;;;5.95;3.53;;;10.10;99.90;;;;;;4973895;28;20026;-76
2022/05/31 05:31:30;;;;;;;4.32;2.63;;;10.20;99.90;;;;;;4977303;28;20640;-76
2022/05/31 05:34:00;;;;;;;8.35;3.17;;;10.30;99.90;;;;;;4970127;28;20057;-75
2022/05/31 05:36:25;;;;;;;5.45;2.55;;;10.30;99.90;;;;;;4959262;28;20031;-75
2022/05/31 05:38:51;;;;;;;3.88;2.20;;;10.30;99.90;;;;;;4972510;28;20041;-76
2022/05/31 05:41:19;;;;;;;3.83;3.05;;;10.40;99.90;;;;;;4983475;28;20406;-75
2022/05/31 05:43:44;;;;;;;3.30;2.25;;;10.50;99.90;;;;;;4984434;28;20026;-76
2022/05/31 05:46:17;;;;;;;4.05;2.45;;;10.50;99.90;;;;;;4986806;28;20085;-77
2022/05/31 05:48:43;;;;;;;2.78;2.13;;;10.60;99.90;;;;;;4980132;28;20029;-75
2022/05/31 05:51:14;;;;;;;3.10;2.20;;;10.60;99.90;;;;;;4985578;28;20032;-75
2022/05/31 05:53:40;;;;;;;4.03;2.20;;;10.60;99.90;;;;;;4980520;28;20030;-76
2022/05/31 05:56:06;;;;;;;2.85;1.60;;;10.70;99.90;;;;;;4984805;28;20730;-77
2022/05/31 05:58:32;;;;;;;5.82;1.85;;;10.80;99.90;;;;;;4988106;28;20026;-76
2022/05/31 06:00:59;;;;;;;3.50;1.90;;;10.80;99.90;;;;;;4984359;28;20057;-75
2022/05/31 06:03:32;;;;;;;3.70;2.17;;;10.80;99.90;;;;;;4987873;28;20097;-75
2022/05/31 06:05:59;;;;;;;3.85;2.10;;;10.90;99.90;;;;;;4985679;28;20035;-76
2022/05/31 06:08:31;;;;;;;2.95;2.05;;;11.00;99.90;;;;;;4984028;28;20061;-75
2022/05/31 06:11:04;;;;;;;2.35;1.25;;;11.10;99.90;;;;;;4984341;28;20498;-75
2022/05/31 06:13:34;;;;;;;2.28;1.73;;;11.10;99.90;;;;;;4983213;28;20026;-74
2022/05/31 06:16:00;;;;;;;3.95;2.00;;;11.20;99.90;;;;;;4973214;28;20256;-75
2022/05/31 06:18:31;;;;;;;4.63;2.10;;;11.30;99.90;;;;;;4958832;28;20491;-75
2022/05/31 06:21:01;;;;;;;2.28;1.35;;;11.40;99.90;;;;;;4978201;28;20121;-76
2022/05/31 06:23:27;;;;;;;3.25;1.30;;;11.40;99.90;;;;;;4958405;28;20601;-74
2022/05/31 06:25:54;;;;;;;4.45;1.73;;;11.40;99.90;;;;;;4985023;28;20109;-74
2022/05/31 06:28:19;;;;;;;4.40;1.75;;;11.40;99.90;;;;;;4981824;28;20034;-76
2022/05/31 06:30:45;;;;;;;3.35;1.55;;;11.40;99.90;;;;;;4987746;28;20033;-75
2022/05/31 06:33:10;;;;;;;4.80;2.00;;;11.40;99.90;;;;;;4986890;28;20505;-75
2022/05/31 06:35:37;;;;;;;4.95;1.63;;;11.50;99.90;;;;;;4965450;28;20555;-73
2022/05/31 06:38:03;;;;;;;4.35;1.65;;;11.50;99.90;;;;;;4977769;28;20058;-73
2022/05/31 06:40:29;;;;;;;2.38;1.38;;;11.60;99.90;;;;;;4975242;28;20482;-78
2022/05/31 06:42:54;;;;;;;2.60;1.30;;;11.60;99.90;;;;;;4967189;28;20038;-78
2022/05/31 06:45:20;;;;;;;2.60;1.30;;;11.80;99.90;;;;;;4976870;28;20026;-78
2022/05/31 06:47:46;;;;;;;2.50;1.30;;;11.90;99.90;;;;;;4982832;28;20433;-78
2022/05/31 06:50:12;;;;;;;2.03;1.20;;;12.00;99.90;;;;;;4986354;28;20038;-80
2022/05/31 06:58:07;;;;;;;1.80;1.20;;;12.20;99.90;;;;;;4980924;28;20057;-78
2022/05/31 07:00:33;;;;;;;4.18;1.20;;;12.30;99.90;;;;;;4970279;28;20055;-77
2022/05/31 07:02:59;;;;;;;3.00;1.10;;;12.30;99.90;;;;;;4966829;28;20466;-81
2022/05/31 07:05:26;;;;;;;4.72;1.88;;;12.40;99.90;;;;;;4956126;28;20030;-75
2022/05/31 07:07:52;;;;;;;3.58;1.45;;;12.30;99.90;;;;;;4965146;28;20403;-75
2022/05/31 07:10:18;;;;;;;4.05;1.60;;;12.30;99.90;;;;;;4986171;28;20552;-75
2022/05/31 07:12:44;;;;;;;2.30;1.10;;;12.20;99.90;;;;;;4954079;28;20039;-75
2022/05/31 07:15:11;;;;;;;3.58;1.35;;;12.30;99.90;;;;;;4963205;28;20031;-75
2022/05/31 07:17:37;;;;;;;4.97;1.58;;;12.30;99.90;;;;;;4965719;28;20085;-76
2022/05/31 07:20:05;;;;;;;3.92;1.40;;;12.40;99.90;;;;;;4946676;28;20031;-76
2022/05/31 07:22:31;;;;;;;2.42;1.20;;;12.50;99.90;;;;;;4961557;28;20113;-75
2022/05/31 07:24:57;;;;;;;3.22;1.27;;;12.70;99.90;;;;;;4947178;28;20026;-75
2022/05/31 07:27:24;;;;;;;4.85;1.60;;;12.90;99.90;;;;;;4945732;28;20070;-76
2022/05/31 07:29:50;;;;;;;4.40;1.50;;;13.00;99.90;;;;;;4960891;28;20058;-75
2022/05/31 07:32:15;;;;;;;4.40;1.67;;;13.00;99.90;;;;;;4972098;28;20117;-76
2022/05/31 07:34:42;;;;;;;3.47;1.35;;;12.90;99.90;;;;;;4984191;28;20034;-76
2022/05/31 07:37:08;;;;;;;2.88;1.45;;;13.00;99.90;;;;;;4983607;28;20054;-77
2022/05/31 07:39:34;;;;;;;3.97;2.05;;;13.00;99.90;;;;;;4977954;28;20034;-75
2022/05/31 07:42:00;;;;;;;4.15;1.90;;;13.00;99.90;;;;;;4990006;28;20031;-75
2022/05/31 07:44:26;;;;;;;4.90;1.98;;;13.00;99.90;;;;;;4983126;28;20027;-76
2022/05/31 07:46:54;;;;;;;3.25;1.48;;;13.00;99.90;;;;;;4968649;28;20077;-75
2022/05/31 07:49:23;;;;;;;3.85;2.03;;;13.00;99.90;;;;;;4971361;28;20073;-74
2022/05/31 07:51:49;;;;;;;3.13;1.83;;;12.90;99.90;;;;;;4976910;28;20038;-75
2022/05/31 07:54:14;;;;;;;3.78;1.67;;;12.90;99.90;;;;;;4984772;28;20415;-76
2022/05/31 07:56:40;;;;;;;4.47;2.35;;;12.90;99.90;;;;;;4977064;28;20026;-76
2022/05/31 07:59:06;;;;;;;3.53;1.85;;;12.90;99.90;;;;;;4988548;28;20034;-76
2022/05/31 08:01:31;;;;;;;5.38;1.90;;;12.90;99.90;;;;;;4970598;28;20026;-76
2022/05/31 08:03:57;;;;;;;2.83;1.65;;;12.90;99.90;;;;;;4985685;28;20059;-75
2022/05/31 08:06:28;;;;;;;2.50;1.40;;;13.00;99.90;;;;;;4986504;28;20027;-75
2022/05/31 08:08:54;;;;;;;3.47;1.63;;;13.00;99.90;;;;;;4987129;28;20038;-76
2022/05/31 08:11:24;;;;;;;3.58;1.90;;;13.00;99.90;;;;;;4993638;28;20027;-75
2022/05/31 08:13:51;;;;;;;3.85;1.63;;;13.10;99.90;;;;;;4995778;28;20042;-75
2022/05/31 08:16:18;;;;;;;2.38;1.60;;;13.20;99.90;;;;;;4994360;28;20032;-75
2022/05/31 08:18:45;;;;;;;1.88;1.50;;;13.30;99.90;;;;;;4987348;28;20045;-75
2022/05/31 08:21:13;;;;;;;2.47;1.60;;;13.40;99.90;;;;;;4983818;28;20476;-75
2022/05/31 08:23:40;;;;;;;4.90;1.70;;;13.50;99.90;;;;;;4972122;28;20031;-76
2022/05/31 08:26:06;;;;;;;3.03;1.80;;;13.70;99.90;;;;;;4983819;28;20053;-75
2022/05/31 08:28:33;;;;;;;4.63;1.63;;;13.80;99.90;;;;;;4978488;28;20038;-75
2022/05/31 08:31:00;;;;;;;5.65;2.65;;;14.00;99.90;;;;;;4982333;28;20030;-76
2022/05/31 08:33:27;;;;;;;6.32;2.20;;;14.10;99.90;;;;;;4987051;28;20027;-75
2022/05/31 08:35:53;;;;;;;4.78;1.70;;;14.20;99.90;;;;;;4973740;28;20041;-76
2022/05/31 08:38:19;;;;;;;4.82;2.30;;;14.50;99.90;;;;;;4988242;28;20077;-76
2022/05/31 08:40:48;;;;;;;5.80;2.60;;;14.70;99.90;;;;;;4989057;28;20091;-76
2022/05/31 08:43:21;;;;;;;5.15;2.13;;;14.50;99.90;;;;;;4989958;28;20056;-76
2022/05/31 08:45:57;;;;;;;5.22;1.90;;;14.80;99.90;;;;;;4982707;28;20382;-74
2022/05/31 08:48:57;;;;;;;2.90;1.80;;;14.90;99.90;;;;;;4984418;28;20026;-76
2022/05/31 08:51:52;;;;;;;4.90;2.83;;;15.20;99.90;;;;;;4986453;28;20302;-76
2022/05/31 08:57:25;;;;;;;4.90;1.87;;;14.60;99.90;;;;;;4989676;28;20029;-76
2022/05/31 08:59:57;;;;;;;5.03;2.60;;;14.80;99.90;;;;;;4977696;28;20505;-76
2022/05/31 09:02:37;;;;;;;7.03;2.72;;;14.90;99.90;;;;;;4987936;28;20022;-75
2022/05/31 09:05:09;;;;;;;3.28;2.28;;;15.10;99.90;;;;;;4989497;28;20457;-76
2022/05/31 09:07:43;;;;;;;5.38;2.30;;;15.20;99.90;;;;;;4987814;28;20030;-76
2022/05/31 09:10:25;;;;;;;4.75;2.58;;;15.40;99.90;;;;;;4988357;28;20419;-76
2022/05/31 09:12:53;;;;;;;3.47;2.38;;;15.50;99.90;;;;;;4986904;28;20034;-76
2022/05/31 09:15:23;;;;;;;3.05;2.13;;;15.50;99.90;;;;;;4984014;28;20027;-75
2022/05/31 09:18:11;;;;;;;3.78;1.80;;;15.60;99.90;;;;;;4986675;28;20026;-75
2022/05/31 09:20:46;;;;;;;2.63;1.55;;;15.70;99.90;;;;;;4987936;28;20066;-75
2022/05/31 09:23:19;;;;;;;3.65;2.10;;;15.80;99.90;;;;;;4988420;28;20502;-76
2022/05/31 09:25:50;;;;;;;3.13;1.50;;;16.00;99.90;;;;;;4971231;28;20034;-76
2022/05/31 09:28:36;;;;;;;5.50;2.83;;;16.10;99.90;;;;;;4987664;28;20030;-76
2022/05/31 09:31:16;;;;;;;3.60;2.17;;;16.10;98.90;;;;;;4988012;28;20078;-76
2022/05/31 09:34:02;;;;;;;3.78;1.92;;;16.00;99.70;;;;;;4984308;28;20473;-76
2022/05/31 09:36:56;;;;;;;2.45;1.90;;;16.00;99.90;;;;;;4986710;28;20580;-76
2022/05/31 09:39:55;;;;;;;4.13;2.47;;;16.00;99.60;;;;;;4981689;28;20057;-76
2022/05/31 09:42:24;;;;;;;3.05;1.65;;;16.00;99.80;;;;;;4981140;28;20113;-75
2022/05/31 09:45:11;;;;;;;3.58;2.08;;;15.90;99.90;;;;;;4981996;28;20026;-75
2022/05/31 09:47:37;;;;;;;4.90;2.30;;;15.90;99.80;;;;;;4986079;28;20494;-75
2022/05/31 09:50:04;;;;;;;4.43;1.92;;;16.00;98.70;;;;;;4988549;28;20057;-76
2022/05/31 09:52:48;;;;;;;3.28;2.25;;;15.90;99.00;;;;;;4988783;28;20424;-77
2022/05/31 09:58:45;;;;;;;3.13;1.38;;;16.10;99.10;;;;;;4986280;28;20109;-75
2022/05/31 10:01:13;;;;;;;3.33;1.60;;;16.10;98.00;;;;;;4967927;28;20034;-77
2022/05/31 10:03:40;;;;;;;1.95;1.35;;;16.10;98.80;;;;;;4987425;28;20483;-76
2022/05/31 10:06:20;;;;;;;5.75;3.53;;;16.10;99.10;;;;;;4985797;28;20054;-76
2022/05/31 10:08:49;;;;;;;4.25;2.70;;;16.10;98.00;;;;;;4981188;28;20026;-75
2022/05/31 10:11:24;;;;;;;3.90;1.75;;;16.10;98.40;;;;;;4988316;28;20065;-76
2022/05/31 10:14:16;;;;;;;2.10;1.40;;;16.10;98.90;;;;;;4987358;28;20065;-76
2022/05/31 10:16:42;;;;;;;;;;;16.10;99.10;;;;;;4988719;28;20031;-76
2022/05/31 10:19:25;;;;;;;3.42;1.00;;;16.00;95.00;;;;;;4985273;28;19910;-76
2022/05/31 10:21:51;;;;;;;4.68;1.38;;;16.10;97.30;;;;;;4969407;28;20056;-76
2022/05/31 10:24:20;;;;;;;1.67;1.15;;;16.20;97.00;;;;;;4982108;28;20031;-75
2022/05/31 10:27:05;;;;;;;2.88;1.30;;;16.20;97.20;;;;;;4986640;28;20058;-74
2022/05/31 10:29:44;;;;;;;1.88;0.88;;;15.90;92.30;;;;;;4980323;28;20438;-76
2022/05/31 10:32:24;;;;;;;1.80;0.80;;;15.60;92.10;;;;;;4983982;28;20026;-76
2022/05/31 10:35:03;;;;;;;1.25;0.70;;;15.80;95.20;;;;;;4982281;28;20050;-75
2022/05/31 10:37:32;;;;;;;4.05;1.40;;;16.00;96.00;;;;;;4980728;28;20027;-76
2022/05/31 10:40:06;;;;;;;1.20;0.77;;;16.40;95.50;;;;;;4982369;28;20057;-77
2022/05/31 10:42:36;;;;;;;2.35;0.75;;;16.50;94.50;;;;;;4982448;28;20393;-76
2022/05/31 10:45:04;;;;;;;2.55;0.70;;;16.80;94.90;;;;;;4988887;28;20506;-72
2022/05/31 10:47:30;;;;;;;1.33;1.00;;;17.10;92.80;;;;;;4987600;28;20104;-74
2022/05/31 10:49:57;;;;;;;0.82;0.50;;;17.20;93.20;;;;;;4986928;28;20502;-72
2022/05/31 10:52:42;;;;;;;1.10;0.60;;;17.20;92.30;;;;;;4984635;28;20434;-74
2022/05/31 10:55:40;;;;;;;1.98;0.75;;;17.20;92.70;;;;;;4967382;28;20494;-74
2022/05/31 10:58:42;;;;;;;2.40;0.65;;;17.20;93.20;;;;;;4986801;28;20026;-74
2022/05/31 11:01:20;;;;;;;2.30;0.90;;;17.20;92.70;;;;;;4986228;28;20069;-74
2022/05/31 11:04:12;;;;;;;1.33;0.63;;;17.20;91.60;;;;;;4987093;28;20030;-74
2022/05/31 11:06:46;;;;;;;0.70;0.55;;;17.20;88.90;;;;;;4989199;28;20058;-74
2022/05/31 11:12:47;;;;;;;2.00;0.68;;;17.40;81.10;;;;;;4988439;28;20494;-76
2022/05/31 11:15:19;;;;;;;2.45;0.70;;;17.80;81.40;;;;;;4983548;28;20096;-75
2022/05/31 11:18:17;;;;;;;1.75;0.50;;;18.50;75.20;;;;;;4987863;28;20022;-74
2022/05/31 11:20:58;;;;;;;3.03;0.57;;;19.80;75.40;;;;;;4988631;28;20039;-74
2022/05/31 11:23:39;;;;;;;1.10;0.50;;;21.50;71.40;;;;;;4989209;28;20506;-75
2022/05/31 11:26:22;;;;;;;1.00;0.40;;;23.30;68.20;;;;;;4987902;28;20069;-74
2022/05/31 11:29:06;;;;;;;2.10;0.60;;;24.80;58.80;;;;;;4988553;28;20411;-75
2022/05/31 11:31:40;;;;;;;2.65;0.60;;;26.30;54.60;;;;;;4984427;28;20026;-73
2022/05/31 11:34:44;;;;;;;2.45;0.77;;;27.30;48.00;;;;;;4966359;28;20035;-73
2022/05/31 11:37:31;;;;;;;1.38;0.40;;;27.90;47.40;;;;;;4985032;28;20034;-74
2022/05/31 11:40:04;;;;;;;1.75;0.60;;;28.30;47.00;;;;;;4993939;28;20056;-74
2022/05/31 11:42:58;;;;;;;1.33;0.57;;;28.60;44.20;;;;;;4983623;28;20129;-74
2022/05/31 11:45:50;;;;;;;0.82;0.60;;;28.40;45.80;;;;;;4969875;28;20042;-75
2022/05/31 11:48:25;;;;;;;1.17;0.73;;;27.20;45.40;;;;;;4983391;28;20041;-75
2022/05/31 11:51:09;;;;;;;1.63;0.70;;;25.70;46.20;;;;;;4983805;28;20030;-74
2022/05/31 11:53:43;;;;;;;0.65;0.47;;;25.00;48.60;;;;;;4980103;28;20109;-75
2022/05/31 11:56:26;;;;;;;1.08;0.50;;;25.00;48.50;;;;;;4993326;28;20049;-76
2022/05/31 11:58:57;;;;;;;0.95;0.50;;;24.50;49.20;;;;;;4979936;28;20031;-75
2022/05/31 12:02:02;;;;;;;1.45;0.68;;;23.60;51.30;;;;;;4981105;28;20597;-75
2022/05/31 12:04:30;;;;;;;1.75;0.77;;;23.20;52.60;;;;;;4972095;28;20161;-75
2022/05/31 12:07:13;;;;;;;1.52;0.52;;;23.30;53.00;;;;;;4983309;28;20033;-73
2022/05/31 12:09:50;;;;;;;1.58;0.40;;;23.50;51.50;;;;;;4979793;28;20026;-74
2022/05/31 12:12:33;;;;;;;0.70;0.50;;;23.50;51.20;;;;;;4980399;28;20055;-75
2022/05/31 12:15:01;;;;;;;0.98;0.70;;;23.50;49.60;;;;;;4976832;28;20034;-76
2022/05/31 12:17:36;;;;;;;1.42;0.80;;;23.30;50.70;;;;;;4979866;28;20019;-76
2022/05/31 12:20:38;;;;;;;0.75;0.50;;;22.90;50.80;;;;;;4975378;28;20046;-76
2022/05/31 12:23:15;;;;;;;1.48;0.75;;;22.40;53.40;;;;;;4976286;28;20254;-75
2022/05/31 12:25:46;;;;;;;2.08;0.73;;;21.60;52.50;;;;;;4986742;28;20027;-75
2022/05/31 12:28:18;;;;;;;1.50;0.50;;;21.00;55.80;;;;;;4980678;28;20518;-75
2022/05/31 12:30:59;;;;;;;1.65;0.50;;;20.80;56.70;;;;;;4978432;28;20532;-76
2022/05/31 12:33:44;;;;;;;1.23;0.73;;;20.80;56.50;;;;;;4965603;28;20023;-77
2022/05/31 12:36:13;;;;;;;1.58;0.70;;;21.00;56.70;;;;;;4998137;28;20027;-76
2022/05/31 12:38:59;;;;;;;1.13;0.55;;;21.20;56.40;;;;;;4987188;28;20484;-75
2022/05/31 12:41:43;;;;;;;1.35;0.70;;;22.20;55.20;;;;;;4990076;28;20026;-75
2022/05/31 12:44:16;;;;;;;2.20;1.00;;;22.80;52.50;;;;;;4979426;28;20065;-75
2022/05/31 12:46:46;;;;;;;3.85;1.15;;;22.40;51.20;;;;;;4968349;28;20081;-75
2022/05/31 12:49:24;;;;;;;1.27;0.70;;;21.70;51.00;;;;;;4985891;28;20098;-76
2022/05/31 12:54:48;;;;;;;2.00;0.73;;;20.60;55.80;;;;;;4988682;28;20038;-76
2022/05/31 12:57:25;;;;;;;3.25;1.00;;;20.30;55.90;;;;;;4984759;28;20034;-77
2022/05/31 12:59:54;;;;;;;1.27;0.80;;;20.00;57.30;;;;;;4982363;28;20114;-77
2022/05/31 13:02:30;;;;;;;1.48;0.70;;;19.60;56.70;;;;;;4981667;28;20043;-76
2022/05/31 13:04:59;;;;;;;1.48;0.70;;;19.40;58.40;;;;;;4965487;28;20034;-76
2022/05/31 13:07:42;;;;;;;1.13;0.70;;;19.10;57.50;;;;;;4984418;28;20031;-76
2022/05/31 13:10:32;;;;;;;1.90;0.70;;;18.90;59.60;;;;;;4979292;28;20398;-76
2022/05/31 13:21:30;;;;;;;1.15;0.70;;;19.30;58.10;;;;;;4984894;28;20116;-76
2022/05/31 13:24:00;;;;;;;3.10;0.75;;;20.00;58.50;;;;;;4968704;28;20030;-76
2022/05/31 13:26:30;;;;;;;1.88;0.90;;;20.50;58.20;;;;;;4985233;28;20042;-77
2022/05/31 13:28:59;;;;;;;1.75;0.77;;;20.90;55.60;;;;;;4986604;28;20038;-76
2022/05/31 13:31:28;;;;;;;1.33;0.68;;;20.80;56.00;;;;;;4986819;28;20023;-77
2022/05/31 13:34:06;;;;;;;3.25;0.98;;;20.70;57.40;;;;;;4982842;28;20081;-77
2022/05/31 13:36:45;;;;;;;1.58;0.80;;;20.80;55.80;;;;;;4985761;28;20041;-75
2022/05/31 13:39:13;;;;;;;2.08;0.88;;;20.80;55.00;;;;;;4981420;28;20621;-75
2022/05/31 13:41:51;;;;;;;1.95;0.75;;;20.50;55.90;;;;;;4981872;28;20459;-77
2022/05/31 13:44:33;;;;;;;1.40;0.60;;;20.20;57.00;;;;;;4987324;28;20032;-77
2022/05/31 13:47:03;;;;;;;1.35;0.70;;;20.00;58.20;;;;;;4989837;28;20490;-76
2022/05/31 13:49:49;;;;;;;1.00;0.63;;;19.70;56.10;;;;;;4982720;28;20142;-76